Main page
METAR-TAF:

METAR-TAF

Airports :

Hawarden Airport

Hawarden, Wales

latitude: 53-10N, longitude: 002-59W, elevation: 10 m

Current weather observation

The report was made 2 hours and 16 minutes ago, at 17:50 UTC
Wind 7 kt from the West/Southwest, varying between Southwest and West/Northwest
Temperature 7°C
Humidity 87%
Pressure 1021 hPa
Visibility 10 km or more
Few clouds at a height of 1800 ft
Scattered clouds at a height of 4600 ft

METAR: EGNR 291750Z 25007KT 230V290 9999 FEW018 SCT046 07/05 Q1021

Time: 20:06 (20:06 UTC)

Forecast

The report was made 6 hours and 5 minutes ago, at 14:01 UTC
Forecast valid from 29 at 15 UTC to 29 at 18 UTC
Wind 7 kt from the West/Southwest
Visibility 10 km or more
Scattered clouds at a height of 3000 ft
Probability 30% :
Temporary
from 29 at 15 UTC to 29 at 18 UTC
Broken clouds at a height of 1400 ft

TAF: EGNR 291401Z 2915/2918 24007KT 9999 SCT030 PROB30 TEMPO 2915/2918 BKN014

Weather observations and forecasts of more than 4000 airports (METAR and TAF reports).

The available stations are represented by yellow and red dots on the map.

Hover mouse over dot to see the name of the station.

Then click to see weather observations and forecasts.

To change the map : click on the green buttons with a black cross to zoom in, on the green button with a dash to zoom out, or on the green arrows for adjacent maps.


METAR-TAF: